Terminal Aerodrome Forecast
Issued by NWS

Home | Current Version | Previous Version | Text Only | Print | Product List | Glossary On
Versions: 1 2 3 4 5 6 7 8 9 10 11 12
000
FTUS46 KSTO 010500
TAFSAC
TAF
KSAC 010531Z 0106/0206 33008KT P6SM SKC
     FM011700 34014G22KT P6SM SKC
     FM012300 33011KT P6SM SKC
     FM020300 31006KT P6SM SKC=

USA.gov is the U.S. government's official web portal to all federal, state and local government web resources and services.